SXS6WA EDDB-LTBS
Flight info
| Callsign | SXS6WA |
|---|---|
| Flight time | 2h 49m |
| Altitude | 37000 |
| Route | ARSAP3Q/06R ARSAP DCT OLUMA DCT KULUV DCT REGLI DCT BILNA DCT LITKU DCT NIPUR DCT UVERA DCT PADGU DCT LOMOS DCT RODIP UN131 KULAR UT44 ATSAL |
| Aircraft | B38M/M-SDE1FGHILORVWXY/HB1 |
Departure
| Time | 2026-05-05 13:51 |
|---|---|
| Airport | Berlin Brandenburg Airport (EDDB) |
Arrival
| Time | 2026-05-05 16:40 |
|---|---|
| Airport | Dalaman International Airport (LTBS) |
| Time | Latitude | Longitude | Altitude | Speed | Heading |
|---|---|---|---|---|---|
| 2026-05-05 13:24 | 52.36174 | 13.50723 | 157 ft | 0 kts | 69° |
| 2026-05-05 13:37 | 52.36174 | 13.50722 | 157 ft | 0 kts | 69° |
| 2026-05-05 13:37 | 52.36169 | 13.50704 | 157 ft | 3 kts | 69° |
| 2026-05-05 13:37 | 52.36162 | 13.50673 | 157 ft | 3 kts | 69° |
| 2026-05-05 13:38 | 52.36155 | 13.50642 | 157 ft | 3 kts | 70° |
| 2026-05-05 13:38 | 52.36149 | 13.50611 | 157 ft | 3 kts | 71° |
| 2026-05-05 13:38 | 52.36142 | 13.50580 | 157 ft | 3 kts | 73° |
| 2026-05-05 13:38 | 52.36137 | 13.50548 | 157 ft | 3 kts | 76° |
| 2026-05-05 13:39 | 52.36133 | 13.50516 | 157 ft | 3 kts | 84° |
| 2026-05-05 13:39 | 52.36133 | 13.50485 | 157 ft | 3 kts | 105° |
| 2026-05-05 13:39 | 52.36139 | 13.50459 | 157 ft | 3 kts | 117° |
| 2026-05-05 13:39 | 52.36150 | 13.50433 | 157 ft | 3 kts | 140° |
| 2026-05-05 13:40 | 52.36166 | 13.50417 | 157 ft | 3 kts | 160° |
| 2026-05-05 13:40 | 52.36184 | 13.50408 | 157 ft | 2 kts | 160° |
| 2026-05-05 13:40 | 52.36186 | 13.50406 | 157 ft | 2 kts | 159° |
| 2026-05-05 13:43 | 52.36180 | 13.50410 | 157 ft | 2 kts | 159° |
| 2026-05-05 13:43 | 52.36164 | 13.50420 | 157 ft | 3 kts | 159° |
| 2026-05-05 13:43 | 52.36134 | 13.50439 | 157 ft | 6 kts | 159° |
| 2026-05-05 13:44 | 52.36080 | 13.50472 | 157 ft | 10 kts | 159° |
| 2026-05-05 13:44 | 52.36002 | 13.50521 | 157 ft | 13 kts | 159° |
| 2026-05-05 13:44 | 52.35911 | 13.50579 | 157 ft | 15 kts | 159° |
| 2026-05-05 13:44 | 52.35810 | 13.50643 | 157 ft | 16 kts | 159° |
| 2026-05-05 13:45 | 52.35699 | 13.50678 | 157 ft | 17 kts | 210° |
| 2026-05-05 13:45 | 52.35648 | 13.50504 | 157 ft | 18 kts | 249° |
| 2026-05-05 13:45 | 52.35603 | 13.50310 | 157 ft | 19 kts | 249° |
| 2026-05-05 13:45 | 52.35554 | 13.50104 | 157 ft | 20 kts | 248° |
| 2026-05-05 13:46 | 52.35502 | 13.49887 | 157 ft | 21 kts | 248° |
| 2026-05-05 13:46 | 52.35447 | 13.49659 | 157 ft | 22 kts | 249° |
| 2026-05-05 13:46 | 52.35391 | 13.49421 | 157 ft | 23 kts | 249° |
| 2026-05-05 13:46 | 52.35332 | 13.49172 | 157 ft | 24 kts | 249° |
| 2026-05-05 13:47 | 52.35271 | 13.48914 | 157 ft | 25 kts | 249° |
| 2026-05-05 13:47 | 52.35208 | 13.48647 | 157 ft | 26 kts | 248° |
| 2026-05-05 13:47 | 52.35144 | 13.48384 | 157 ft | 23 kts | 249° |
| 2026-05-05 13:47 | 52.35085 | 13.48134 | 157 ft | 24 kts | 249° |
| 2026-05-05 13:48 | 52.35024 | 13.47874 | 157 ft | 25 kts | 249° |
| 2026-05-05 13:48 | 52.34960 | 13.47606 | 157 ft | 26 kts | 248° |
| 2026-05-05 13:48 | 52.34894 | 13.47331 | 157 ft | 26 kts | 249° |
| 2026-05-05 13:48 | 52.34832 | 13.47071 | 157 ft | 23 kts | 249° |
| 2026-05-05 13:49 | 52.34780 | 13.46846 | 157 ft | 13 kts | 249° |
| 2026-05-05 13:49 | 52.34712 | 13.46771 | 157 ft | 14 kts | 167° |
| 2026-05-05 13:49 | 52.34620 | 13.46829 | 157 ft | 15 kts | 158° |
| 2026-05-05 13:49 | 52.34571 | 13.46965 | 157 ft | 16 kts | 75° |
| 2026-05-05 13:50 | 52.34613 | 13.47144 | 157 ft | 26 kts | 69° |
| 2026-05-05 13:50 | 52.34782 | 13.47857 | 157 ft | 107 kts | 69° |
| 2026-05-05 13:50 | 52.35139 | 13.49342 | 157 ft | 171 kts | 68° |
| 2026-05-05 13:50 | 52.35623 | 13.51328 | 526 ft | 200 kts | 68° |
| 2026-05-05 13:51 | 52.36114 | 13.53530 | 1283 ft | 215 kts | 75° |
| 2026-05-05 13:51 | 52.36060 | 13.56149 | 1717 ft | 249 kts | 108° |
| 2026-05-05 13:51 | 52.35046 | 13.58499 | 2566 ft | 258 kts | 141° |
| 2026-05-05 13:51 | 52.33539 | 13.59838 | 3884 ft | 236 kts | 156° |
| 2026-05-05 13:52 | 52.32114 | 13.61077 | 5085 ft | 234 kts | 140° |
| 2026-05-05 13:52 | 52.31174 | 13.63246 | 5631 ft | 247 kts | 109° |
| 2026-05-05 13:52 | 52.31167 | 13.66004 | 5788 ft | 248 kts | 71° |
| 2026-05-05 13:52 | 52.31801 | 13.68643 | 5960 ft | 252 kts | 69° |
| 2026-05-05 13:53 | 52.32399 | 13.71344 | 6673 ft | 254 kts | 70° |
| 2026-05-05 13:53 | 52.32838 | 13.74206 | 7383 ft | 264 kts | 88° |
| 2026-05-05 13:53 | 52.32779 | 13.77263 | 7882 ft | 282 kts | 93° |
| 2026-05-05 13:53 | 52.32684 | 13.80554 | 8467 ft | 296 kts | 94° |
| 2026-05-05 13:54 | 52.32574 | 13.83926 | 9336 ft | 299 kts | 94° |
| 2026-05-05 13:54 | 52.32456 | 13.87350 | 10112 ft | 304 kts | 95° |
| 2026-05-05 13:54 | 52.32331 | 13.90821 | 10865 ft | 308 kts | 95° |
| 2026-05-05 13:54 | 52.32202 | 13.94347 | 11608 ft | 313 kts | 95° |
| 2026-05-05 13:55 | 52.32069 | 13.97913 | 12344 ft | 317 kts | 95° |
| 2026-05-05 13:55 | 52.31933 | 14.01528 | 13054 ft | 322 kts | 96° |
| 2026-05-05 13:55 | 52.31794 | 14.05207 | 13753 ft | 326 kts | 96° |
| 2026-05-05 13:55 | 52.31632 | 14.08930 | 14345 ft | 332 kts | 101° |
| 2026-05-05 13:56 | 52.31109 | 14.12686 | 14591 ft | 348 kts | 107° |
| 2026-05-05 13:56 | 52.30509 | 14.16610 | 14887 ft | 363 kts | 106° |
| 2026-05-05 13:56 | 52.29918 | 14.20675 | 15353 ft | 371 kts | 106° |
| 2026-05-05 13:56 | 52.29334 | 14.24794 | 15976 ft | 374 kts | 105° |
| 2026-05-05 13:57 | 52.28752 | 14.28954 | 16551 ft | 378 kts | 105° |
| 2026-05-05 13:57 | 52.28166 | 14.33162 | 17147 ft | 382 kts | 105° |
| 2026-05-05 13:57 | 52.27574 | 14.37413 | 17706 ft | 386 kts | 105° |
| 2026-05-05 13:57 | 52.26976 | 14.41702 | 18249 ft | 390 kts | 105° |
| 2026-05-05 13:58 | 52.26371 | 14.46033 | 18734 ft | 393 kts | 106° |
| 2026-05-05 13:58 | 52.25760 | 14.50391 | 19233 ft | 395 kts | 106° |
| 2026-05-05 13:58 | 52.25143 | 14.54776 | 19722 ft | 398 kts | 106° |
| 2026-05-05 13:58 | 52.24522 | 14.59182 | 20209 ft | 400 kts | 106° |
| 2026-05-05 13:59 | 52.23262 | 14.68089 | 21161 ft | 406 kts | 106° |
| 2026-05-05 13:59 | 52.22414 | 14.72461 | 21605 ft | 402 kts | 120° |
| 2026-05-05 14:00 | 52.20305 | 14.79246 | 22349 ft | 407 kts | 121° |
| 2026-05-05 14:00 | 52.19024 | 14.83376 | 22842 ft | 409 kts | 121° |
| 2026-05-05 14:00 | 52.17730 | 14.87523 | 23304 ft | 412 kts | 121° |
| 2026-05-05 14:00 | 52.16424 | 14.91695 | 23697 ft | 415 kts | 121° |
| 2026-05-05 14:01 | 52.15107 | 14.95895 | 24047 ft | 418 kts | 121° |
| 2026-05-05 14:01 | 52.13778 | 15.00123 | 24425 ft | 421 kts | 121° |
| 2026-05-05 14:01 | 52.12439 | 15.04379 | 24817 ft | 424 kts | 121° |
| 2026-05-05 14:01 | 52.11090 | 15.08655 | 25189 ft | 426 kts | 122° |
| 2026-05-05 14:02 | 52.09733 | 15.12953 | 25563 ft | 429 kts | 122° |
| 2026-05-05 14:02 | 52.08363 | 15.17281 | 25935 ft | 431 kts | 122° |
| 2026-05-05 14:02 | 52.06984 | 15.21630 | 26295 ft | 434 kts | 122° |
| 2026-05-05 14:02 | 52.05596 | 15.26003 | 26653 ft | 437 kts | 122° |
| 2026-05-05 14:03 | 52.04197 | 15.30398 | 27000 ft | 439 kts | 122° |
| 2026-05-05 14:03 | 52.02791 | 15.34811 | 27344 ft | 442 kts | 122° |
| 2026-05-05 14:03 | 52.01372 | 15.39257 | 27669 ft | 444 kts | 121° |
| 2026-05-05 14:03 | 51.99944 | 15.43718 | 27990 ft | 447 kts | 121° |
| 2026-05-05 14:04 | 51.98506 | 15.48206 | 28306 ft | 449 kts | 121° |
| 2026-05-05 14:04 | 51.97060 | 15.52711 | 28687 ft | 450 kts | 121° |
| 2026-05-05 14:04 | 51.95610 | 15.57220 | 29022 ft | 453 kts | 121° |
| 2026-05-05 14:04 | 51.94148 | 15.61755 | 29314 ft | 455 kts | 121° |
| 2026-05-05 14:05 | 51.92678 | 15.66311 | 29638 ft | 457 kts | 121° |
| 2026-05-05 14:05 | 51.91200 | 15.70886 | 29932 ft | 460 kts | 121° |
| 2026-05-05 14:05 | 51.89687 | 15.75454 | 30185 ft | 460 kts | 126° |
| 2026-05-05 14:05 | 51.87908 | 15.79745 | 30411 ft | 460 kts | 128° |
| 2026-05-05 14:06 | 51.86105 | 15.84027 | 30679 ft | 461 kts | 128° |
| 2026-05-05 14:06 | 51.84288 | 15.88320 | 30929 ft | 463 kts | 128° |
| 2026-05-05 14:06 | 51.82460 | 15.92628 | 31168 ft | 466 kts | 128° |
| 2026-05-05 14:06 | 51.80623 | 15.96951 | 31414 ft | 468 kts | 128° |
| 2026-05-05 14:07 | 51.78776 | 16.01286 | 31654 ft | 470 kts | 128° |
| 2026-05-05 14:07 | 51.76920 | 16.05636 | 31889 ft | 472 kts | 128° |
| 2026-05-05 14:07 | 51.75052 | 16.10007 | 32127 ft | 474 kts | 128° |
| 2026-05-05 14:07 | 51.73178 | 16.14384 | 32348 ft | 476 kts | 128° |
| 2026-05-05 14:08 | 51.71293 | 16.18781 | 32587 ft | 477 kts | 128° |
| 2026-05-05 14:08 | 51.69405 | 16.23176 | 32904 ft | 477 kts | 128° |
| 2026-05-05 14:08 | 51.67517 | 16.27566 | 33221 ft | 477 kts | 128° |
| 2026-05-05 14:08 | 51.65580 | 16.31892 | 33499 ft | 474 kts | 135° |
| 2026-05-05 14:09 | 51.63173 | 16.35380 | 33828 ft | 462 kts | 150° |
| 2026-05-05 14:09 | 51.60523 | 16.38305 | 34006 ft | 463 kts | 150° |
| 2026-05-05 14:09 | 51.57870 | 16.41217 | 34311 ft | 460 kts | 150° |
| 2026-05-05 14:09 | 51.55217 | 16.44082 | 34578 ft | 460 kts | 150° |
| 2026-05-05 14:10 | 51.52554 | 16.46926 | 34833 ft | 459 kts | 151° |
| 2026-05-05 14:10 | 51.49892 | 16.49752 | 35084 ft | 459 kts | 151° |
| 2026-05-05 14:10 | 51.47233 | 16.52569 | 35339 ft | 458 kts | 151° |
| 2026-05-05 14:10 | 51.44573 | 16.55383 | 35575 ft | 457 kts | 150° |
| 2026-05-05 14:11 | 51.41920 | 16.58184 | 35817 ft | 456 kts | 150° |
| 2026-05-05 14:11 | 51.39304 | 16.60941 | 36055 ft | 456 kts | 150° |
| 2026-05-05 14:11 | 51.36622 | 16.63766 | 36271 ft | 455 kts | 150° |
| 2026-05-05 14:11 | 51.34009 | 16.66513 | 36480 ft | 455 kts | 150° |
| 2026-05-05 14:12 | 51.31365 | 16.69290 | 36689 ft | 455 kts | 150° |
| 2026-05-05 14:12 | 51.28726 | 16.72056 | 36817 ft | 455 kts | 150° |
| 2026-05-05 14:12 | 51.23448 | 16.77578 | 36793 ft | 452 kts | 150° |
| 2026-05-05 14:13 | 51.18180 | 16.83075 | 36788 ft | 453 kts | 150° |
| 2026-05-05 14:13 | 51.12910 | 16.88558 | 36773 ft | 452 kts | 150° |
| 2026-05-05 14:14 | 51.07640 | 16.94026 | 36773 ft | 452 kts | 150° |
| 2026-05-05 14:14 | 51.02367 | 16.99484 | 36766 ft | 452 kts | 150° |
| 2026-05-05 14:15 | 50.97098 | 17.04920 | 36773 ft | 452 kts | 150° |
| 2026-05-05 14:15 | 50.91831 | 17.10340 | 36775 ft | 452 kts | 150° |
| 2026-05-05 14:16 | 50.86555 | 17.15755 | 36760 ft | 452 kts | 150° |
| 2026-05-05 14:16 | 50.81279 | 17.21155 | 36772 ft | 452 kts | 150° |
| 2026-05-05 14:17 | 50.75996 | 17.26548 | 36771 ft | 452 kts | 150° |
| 2026-05-05 14:17 | 50.70715 | 17.31923 | 36771 ft | 452 kts | 150° |
| 2026-05-05 14:18 | 50.65429 | 17.37290 | 36770 ft | 452 kts | 150° |
| 2026-05-05 14:18 | 50.60143 | 17.42641 | 36772 ft | 452 kts | 150° |
| 2026-05-05 14:19 | 50.54853 | 17.47982 | 36765 ft | 451 kts | 150° |
| 2026-05-05 14:19 | 50.49571 | 17.53301 | 36772 ft | 451 kts | 150° |
| 2026-05-05 14:20 | 50.44292 | 17.58602 | 36772 ft | 450 kts | 150° |
| 2026-05-05 14:20 | 50.39011 | 17.63891 | 36781 ft | 450 kts | 150° |
| 2026-05-05 14:21 | 50.33730 | 17.69165 | 36784 ft | 450 kts | 150° |
| 2026-05-05 14:21 | 50.28448 | 17.74428 | 36784 ft | 450 kts | 150° |
| 2026-05-05 14:22 | 50.23203 | 17.79638 | 36786 ft | 449 kts | 150° |
| 2026-05-05 14:22 | 50.17927 | 17.84867 | 36788 ft | 449 kts | 150° |
| 2026-05-05 14:23 | 50.12647 | 17.90088 | 36792 ft | 449 kts | 150° |
| 2026-05-05 14:23 | 50.07364 | 17.95298 | 36795 ft | 449 kts | 150° |
| 2026-05-05 14:24 | 50.02012 | 18.00277 | 36788 ft | 445 kts | 159° |
| 2026-05-05 14:24 | 49.96378 | 18.04330 | 36797 ft | 447 kts | 158° |
| 2026-05-05 14:25 | 49.90742 | 18.08374 | 36807 ft | 446 kts | 158° |
| 2026-05-05 14:25 | 49.85103 | 18.12405 | 36826 ft | 447 kts | 158° |
| 2026-05-05 14:26 | 49.79455 | 18.16434 | 36828 ft | 447 kts | 158° |
| 2026-05-05 14:26 | 49.73807 | 18.20450 | 36832 ft | 447 kts | 158° |
| 2026-05-05 14:27 | 49.68164 | 18.24453 | 36826 ft | 446 kts | 158° |
| 2026-05-05 14:27 | 49.62514 | 18.28450 | 36812 ft | 447 kts | 159° |
| 2026-05-05 14:28 | 49.56861 | 18.32440 | 36820 ft | 447 kts | 159° |
| 2026-05-05 14:28 | 49.51202 | 18.36424 | 36825 ft | 447 kts | 159° |
| 2026-05-05 14:29 | 49.45548 | 18.40394 | 36840 ft | 447 kts | 159° |
| 2026-05-05 14:29 | 49.39891 | 18.44375 | 36845 ft | 447 kts | 156° |
| 2026-05-05 14:30 | 49.34662 | 18.49523 | 36863 ft | 452 kts | 150° |
| 2026-05-05 14:30 | 49.29404 | 18.54839 | 36856 ft | 452 kts | 149° |
| 2026-05-05 14:31 | 49.24170 | 18.60134 | 36846 ft | 450 kts | 149° |
| 2026-05-05 14:31 | 49.18937 | 18.65415 | 36844 ft | 451 kts | 150° |
| 2026-05-05 14:32 | 49.13696 | 18.70691 | 36851 ft | 450 kts | 149° |
| 2026-05-05 14:32 | 49.08469 | 18.75939 | 36864 ft | 451 kts | 150° |
| 2026-05-05 14:33 | 49.03230 | 18.81187 | 36851 ft | 451 kts | 150° |
| 2026-05-05 14:33 | 48.97986 | 18.86426 | 36876 ft | 451 kts | 149° |
| 2026-05-05 14:34 | 48.92741 | 18.91652 | 36886 ft | 452 kts | 149° |
| 2026-05-05 14:34 | 48.87485 | 18.96873 | 36878 ft | 451 kts | 150° |
| 2026-05-05 14:35 | 48.82220 | 19.02095 | 36880 ft | 451 kts | 149° |
| 2026-05-05 14:35 | 48.76971 | 19.07287 | 36902 ft | 450 kts | 150° |
| 2026-05-05 14:36 | 48.71710 | 19.12474 | 36887 ft | 451 kts | 149° |
| 2026-05-05 14:36 | 48.66463 | 19.17638 | 36904 ft | 450 kts | 149° |
| 2026-05-05 14:37 | 48.61248 | 19.22755 | 36896 ft | 450 kts | 150° |
| 2026-05-05 14:37 | 48.55950 | 19.27941 | 36895 ft | 451 kts | 150° |
| 2026-05-05 14:38 | 48.50688 | 19.33080 | 36903 ft | 450 kts | 149° |
| 2026-05-05 14:38 | 48.45425 | 19.38206 | 36910 ft | 451 kts | 150° |
| 2026-05-05 14:39 | 48.40183 | 19.43300 | 36915 ft | 451 kts | 149° |
| 2026-05-05 14:39 | 48.34912 | 19.48406 | 36907 ft | 450 kts | 150° |
| 2026-05-05 14:40 | 48.29648 | 19.53499 | 36920 ft | 451 kts | 150° |
| 2026-05-05 14:40 | 48.24374 | 19.58586 | 36917 ft | 450 kts | 150° |
| 2026-05-05 14:41 | 48.18903 | 19.63087 | 36923 ft | 449 kts | 154° |
| 2026-05-05 14:41 | 48.13417 | 19.67546 | 36912 ft | 449 kts | 153° |
| 2026-05-05 14:42 | 48.07934 | 19.72020 | 36912 ft | 449 kts | 153° |
| 2026-05-05 14:42 | 48.02452 | 19.76484 | 36913 ft | 449 kts | 154° |
| 2026-05-05 14:43 | 47.96959 | 19.80948 | 36915 ft | 449 kts | 154° |
| 2026-05-05 14:43 | 47.91466 | 19.85400 | 36908 ft | 449 kts | 154° |
| 2026-05-05 14:44 | 47.85972 | 19.89841 | 36920 ft | 450 kts | 154° |
| 2026-05-05 14:44 | 47.80460 | 19.94287 | 36926 ft | 451 kts | 154° |
| 2026-05-05 14:45 | 47.74948 | 19.98721 | 36908 ft | 451 kts | 154° |
| 2026-05-05 14:45 | 47.69445 | 20.03181 | 36913 ft | 450 kts | 153° |
| 2026-05-05 14:46 | 47.64881 | 20.06891 | 36914 ft | 450 kts | 153° |
| 2026-05-05 14:46 | 47.58483 | 20.12079 | 36917 ft | 452 kts | 153° |
| 2026-05-05 14:47 | 47.52964 | 20.16540 | 36913 ft | 452 kts | 153° |
| 2026-05-05 14:47 | 47.48344 | 20.20267 | 36912 ft | 451 kts | 153° |
| 2026-05-05 14:48 | 47.42870 | 20.24674 | 36917 ft | 451 kts | 153° |
| 2026-05-05 14:48 | 47.37348 | 20.29110 | 36923 ft | 452 kts | 153° |
| 2026-05-05 14:49 | 47.31827 | 20.33533 | 36924 ft | 452 kts | 153° |
| 2026-05-05 14:49 | 47.26293 | 20.37955 | 36933 ft | 453 kts | 153° |
| 2026-05-05 14:50 | 47.20760 | 20.42377 | 36930 ft | 453 kts | 151° |
| 2026-05-05 14:50 | 47.15482 | 20.47449 | 36941 ft | 454 kts | 148° |
| 2026-05-05 14:51 | 47.10178 | 20.52495 | 36924 ft | 454 kts | 148° |
| 2026-05-05 14:51 | 47.04871 | 20.57501 | 36918 ft | 454 kts | 148° |
| 2026-05-05 14:52 | 46.99557 | 20.62502 | 36925 ft | 454 kts | 148° |
| 2026-05-05 14:52 | 46.94239 | 20.67493 | 36925 ft | 454 kts | 149° |
| 2026-05-05 14:53 | 46.88919 | 20.72474 | 36924 ft | 454 kts | 148° |
| 2026-05-05 14:53 | 46.83602 | 20.77441 | 36926 ft | 454 kts | 148° |
| 2026-05-05 14:54 | 46.78274 | 20.82406 | 36928 ft | 455 kts | 148° |
| 2026-05-05 14:54 | 46.72932 | 20.87372 | 36928 ft | 455 kts | 148° |
| 2026-05-05 14:55 | 46.67591 | 20.92326 | 36929 ft | 455 kts | 148° |
| 2026-05-05 14:55 | 46.62245 | 20.97272 | 36931 ft | 455 kts | 148° |
| 2026-05-05 14:56 | 46.56899 | 21.02206 | 36932 ft | 455 kts | 148° |
| 2026-05-05 14:56 | 46.51548 | 21.07134 | 36934 ft | 456 kts | 148° |
| 2026-05-05 14:57 | 46.46178 | 21.12067 | 36932 ft | 457 kts | 148° |
| 2026-05-05 14:57 | 46.40842 | 21.16958 | 36933 ft | 457 kts | 148° |
| 2026-05-05 14:58 | 46.35472 | 21.21868 | 36957 ft | 457 kts | 148° |
| 2026-05-05 14:58 | 46.30097 | 21.26771 | 36963 ft | 457 kts | 148° |
| 2026-05-05 14:59 | 46.24721 | 21.31663 | 36967 ft | 458 kts | 148° |
| 2026-05-05 14:59 | 46.19328 | 21.36560 | 36965 ft | 458 kts | 148° |
| 2026-05-05 15:00 | 46.14808 | 21.40655 | 36962 ft | 458 kts | 148° |
| 2026-05-05 15:00 | 46.08532 | 21.46328 | 36959 ft | 458 kts | 148° |
| 2026-05-05 15:01 | 46.03129 | 21.51199 | 36955 ft | 458 kts | 148° |
| 2026-05-05 15:01 | 45.97727 | 21.56058 | 36956 ft | 459 kts | 148° |
| 2026-05-05 15:02 | 45.92305 | 21.60923 | 36937 ft | 459 kts | 148° |
| 2026-05-05 15:02 | 45.86883 | 21.65777 | 36945 ft | 460 kts | 148° |
| 2026-05-05 15:03 | 45.81457 | 21.70624 | 36945 ft | 460 kts | 148° |
| 2026-05-05 15:03 | 45.76025 | 21.75465 | 36948 ft | 461 kts | 148° |
| 2026-05-05 15:04 | 45.70614 | 21.80275 | 36947 ft | 461 kts | 148° |
| 2026-05-05 15:04 | 45.65163 | 21.85110 | 36943 ft | 461 kts | 148° |
| 2026-05-05 15:05 | 45.56980 | 21.92347 | 36955 ft | 461 kts | 149° |
| 2026-05-05 15:06 | 45.51483 | 21.97195 | 36959 ft | 462 kts | 148° |
| 2026-05-05 15:06 | 45.46038 | 22.01986 | 36965 ft | 463 kts | 148° |
| 2026-05-05 15:07 | 45.40556 | 22.06797 | 36957 ft | 463 kts | 148° |
| 2026-05-05 15:07 | 45.35063 | 22.11609 | 36968 ft | 464 kts | 148° |
| 2026-05-05 15:08 | 45.29564 | 22.16413 | 36983 ft | 464 kts | 148° |
| 2026-05-05 15:08 | 45.24055 | 22.21215 | 36977 ft | 465 kts | 148° |
| 2026-05-05 15:09 | 45.18542 | 22.26010 | 36984 ft | 465 kts | 148° |
| 2026-05-05 15:09 | 45.13021 | 22.30800 | 36975 ft | 465 kts | 149° |
| 2026-05-05 15:10 | 45.07499 | 22.35582 | 36989 ft | 465 kts | 149° |
| 2026-05-05 15:10 | 45.01969 | 22.40358 | 36981 ft | 467 kts | 148° |
| 2026-05-05 15:11 | 44.96413 | 22.45148 | 36982 ft | 468 kts | 148° |
| 2026-05-05 15:11 | 44.90858 | 22.49927 | 36976 ft | 468 kts | 149° |
| 2026-05-05 15:12 | 44.85299 | 22.54698 | 36975 ft | 468 kts | 149° |
| 2026-05-05 15:12 | 44.79775 | 22.59429 | 36981 ft | 468 kts | 148° |
| 2026-05-05 15:13 | 44.73959 | 22.63557 | 36973 ft | 470 kts | 154° |
| 2026-05-05 15:13 | 44.68077 | 22.67564 | 36969 ft | 470 kts | 154° |
| 2026-05-05 15:14 | 44.62202 | 22.71601 | 36970 ft | 470 kts | 154° |
| 2026-05-05 15:14 | 44.56327 | 22.75635 | 36967 ft | 470 kts | 154° |
| 2026-05-05 15:15 | 44.50451 | 22.79660 | 36969 ft | 470 kts | 154° |
| 2026-05-05 15:15 | 44.44574 | 22.83677 | 36972 ft | 470 kts | 154° |
| 2026-05-05 15:16 | 44.38692 | 22.87688 | 36970 ft | 470 kts | 154° |
| 2026-05-05 15:16 | 44.32811 | 22.91689 | 36969 ft | 470 kts | 154° |
| 2026-05-05 15:17 | 44.26929 | 22.95684 | 36984 ft | 470 kts | 154° |
| 2026-05-05 15:17 | 44.21037 | 22.99674 | 36973 ft | 471 kts | 154° |
| 2026-05-05 15:18 | 44.15135 | 23.03663 | 36974 ft | 472 kts | 154° |
| 2026-05-05 15:18 | 44.09217 | 23.07653 | 36973 ft | 472 kts | 154° |
| 2026-05-05 15:19 | 44.03306 | 23.11631 | 36979 ft | 472 kts | 154° |
| 2026-05-05 15:19 | 43.97391 | 23.15602 | 36980 ft | 472 kts | 154° |
| 2026-05-05 15:20 | 43.91471 | 23.19568 | 36979 ft | 473 kts | 154° |
| 2026-05-05 15:20 | 43.85532 | 23.23539 | 36975 ft | 473 kts | 154° |
| 2026-05-05 15:21 | 43.79544 | 23.27326 | 36982 ft | 474 kts | 156° |
| 2026-05-05 15:21 | 43.73540 | 23.31082 | 36991 ft | 473 kts | 155° |
| 2026-05-05 15:22 | 43.67533 | 23.34836 | 36982 ft | 474 kts | 156° |
| 2026-05-05 15:22 | 43.61519 | 23.38588 | 36988 ft | 474 kts | 156° |
| 2026-05-05 15:23 | 43.55505 | 23.42331 | 36988 ft | 474 kts | 156° |
| 2026-05-05 15:23 | 43.49489 | 23.46067 | 36978 ft | 474 kts | 156° |
| 2026-05-05 15:24 | 43.43460 | 23.49804 | 37001 ft | 476 kts | 156° |
| 2026-05-05 15:24 | 43.37417 | 23.53540 | 37000 ft | 476 kts | 156° |
| 2026-05-05 15:25 | 43.31416 | 23.57243 | 37005 ft | 476 kts | 156° |
| 2026-05-05 15:25 | 43.25374 | 23.60962 | 37006 ft | 476 kts | 156° |
| 2026-05-05 15:26 | 43.19316 | 23.64684 | 37022 ft | 478 kts | 156° |
| 2026-05-05 15:26 | 43.13252 | 23.68401 | 37022 ft | 477 kts | 156° |
| 2026-05-05 15:27 | 43.07188 | 23.72109 | 37027 ft | 477 kts | 156° |
| 2026-05-05 15:27 | 43.01122 | 23.75812 | 37023 ft | 478 kts | 156° |
| 2026-05-05 15:28 | 42.95036 | 23.79518 | 37045 ft | 479 kts | 156° |
| 2026-05-05 15:28 | 42.88957 | 23.83212 | 37034 ft | 478 kts | 156° |
| 2026-05-05 15:29 | 42.82883 | 23.86895 | 37028 ft | 478 kts | 156° |
| 2026-05-05 15:29 | 42.76798 | 23.90576 | 37039 ft | 480 kts | 157° |
| 2026-05-05 15:30 | 42.70691 | 23.94263 | 37033 ft | 480 kts | 156° |
| 2026-05-05 15:30 | 42.64593 | 23.97937 | 37035 ft | 479 kts | 156° |
| 2026-05-05 15:31 | 42.58508 | 24.01594 | 37020 ft | 479 kts | 156° |
| 2026-05-05 15:31 | 42.52394 | 24.05262 | 37031 ft | 481 kts | 156° |
| 2026-05-05 15:32 | 42.46277 | 24.08924 | 37020 ft | 480 kts | 156° |
| 2026-05-05 15:32 | 42.40204 | 24.12551 | 37019 ft | 480 kts | 156° |
| 2026-05-05 15:33 | 42.34044 | 24.16222 | 37014 ft | 481 kts | 156° |
| 2026-05-05 15:33 | 42.27952 | 24.19845 | 37021 ft | 482 kts | 156° |
| 2026-05-05 15:34 | 42.21817 | 24.23486 | 37017 ft | 482 kts | 156° |
| 2026-05-05 15:34 | 42.15679 | 24.27121 | 37009 ft | 482 kts | 156° |
| 2026-05-05 15:35 | 42.09539 | 24.30749 | 37016 ft | 482 kts | 156° |
| 2026-05-05 15:35 | 42.03397 | 24.34371 | 37013 ft | 482 kts | 156° |
| 2026-05-05 15:36 | 41.97255 | 24.37985 | 37021 ft | 482 kts | 157° |
| 2026-05-05 15:36 | 41.92150 | 24.40982 | 37015 ft | 482 kts | 157° |
| 2026-05-05 15:37 | 41.85986 | 24.44596 | 37027 ft | 483 kts | 157° |
| 2026-05-05 15:37 | 41.79830 | 24.48197 | 37024 ft | 483 kts | 157° |
| 2026-05-05 15:38 | 41.73667 | 24.51794 | 37024 ft | 483 kts | 156° |
| 2026-05-05 15:38 | 41.67510 | 24.55380 | 37026 ft | 482 kts | 157° |
| 2026-05-05 15:39 | 41.61357 | 24.58959 | 37034 ft | 482 kts | 157° |
| 2026-05-05 15:39 | 41.55211 | 24.62525 | 37033 ft | 482 kts | 157° |
| 2026-05-05 15:40 | 41.49056 | 24.66089 | 37022 ft | 482 kts | 157° |
| 2026-05-05 15:40 | 41.42932 | 24.69748 | 37019 ft | 483 kts | 149° |
| 2026-05-05 15:40 | 41.40257 | 24.72418 | 37036 ft | 480 kts | 137° |
| 2026-05-05 15:41 | 41.37738 | 24.75364 | 37017 ft | 484 kts | 139° |
| 2026-05-05 15:41 | 41.32680 | 24.81261 | 37036 ft | 483 kts | 138° |
| 2026-05-05 15:42 | 41.27646 | 24.87198 | 37028 ft | 483 kts | 137° |
| 2026-05-05 15:42 | 41.22613 | 24.93131 | 37029 ft | 485 kts | 137° |
| 2026-05-05 15:43 | 41.17538 | 24.99099 | 37036 ft | 489 kts | 137° |
| 2026-05-05 15:43 | 41.12446 | 25.05074 | 37038 ft | 489 kts | 137° |
| 2026-05-05 15:44 | 41.07343 | 25.11050 | 37036 ft | 490 kts | 137° |
| 2026-05-05 15:44 | 41.02232 | 25.17021 | 37037 ft | 490 kts | 137° |
| 2026-05-05 15:45 | 40.97119 | 25.22982 | 37031 ft | 490 kts | 137° |
| 2026-05-05 15:45 | 40.91998 | 25.28943 | 37043 ft | 492 kts | 137° |
| 2026-05-05 15:46 | 40.86858 | 25.34910 | 37062 ft | 491 kts | 137° |
| 2026-05-05 15:46 | 40.81775 | 25.40798 | 37036 ft | 489 kts | 137° |
| 2026-05-05 15:47 | 40.76999 | 25.47138 | 37057 ft | 486 kts | 129° |
| 2026-05-05 15:47 | 40.72571 | 25.53911 | 37032 ft | 487 kts | 129° |
| 2026-05-05 15:48 | 40.68148 | 25.60685 | 37032 ft | 488 kts | 129° |
| 2026-05-05 15:48 | 40.63715 | 25.67461 | 37056 ft | 489 kts | 129° |
| 2026-05-05 15:49 | 40.59284 | 25.74220 | 37038 ft | 487 kts | 129° |
| 2026-05-05 15:49 | 40.54853 | 25.80964 | 37042 ft | 487 kts | 129° |
| 2026-05-05 15:50 | 40.50416 | 25.87697 | 37045 ft | 487 kts | 129° |
| 2026-05-05 15:50 | 40.45945 | 25.94390 | 37043 ft | 487 kts | 129° |
| 2026-05-05 15:51 | 40.41473 | 26.01078 | 37043 ft | 487 kts | 129° |
| 2026-05-05 15:51 | 40.37001 | 26.07750 | 37034 ft | 487 kts | 129° |
| 2026-05-05 15:52 | 40.32518 | 26.14425 | 37044 ft | 488 kts | 129° |
| 2026-05-05 15:52 | 40.28026 | 26.21097 | 37042 ft | 488 kts | 129° |
| 2026-05-05 15:53 | 40.23533 | 26.27758 | 37060 ft | 488 kts | 130° |
| 2026-05-05 15:53 | 40.19052 | 26.34387 | 37046 ft | 485 kts | 130° |
| 2026-05-05 15:54 | 40.14569 | 26.41004 | 37046 ft | 486 kts | 130° |
| 2026-05-05 15:54 | 40.09773 | 26.47228 | 37067 ft | 487 kts | 134° |
| 2026-05-05 15:55 | 40.04943 | 26.53433 | 37042 ft | 486 kts | 134° |
| 2026-05-05 15:55 | 40.00128 | 26.59637 | 37052 ft | 487 kts | 134° |
| 2026-05-05 15:56 | 39.95306 | 26.65841 | 37045 ft | 487 kts | 134° |
| 2026-05-05 15:56 | 39.90484 | 26.72029 | 37048 ft | 487 kts | 134° |
| 2026-05-05 15:57 | 39.85651 | 26.78221 | 37050 ft | 487 kts | 134° |
| 2026-05-05 15:57 | 39.80819 | 26.84398 | 37056 ft | 487 kts | 134° |
| 2026-05-05 15:58 | 39.75983 | 26.90492 | 37020 ft | 487 kts | 136° |
| 2026-05-05 15:58 | 39.71016 | 26.96586 | 37052 ft | 489 kts | 136° |
| 2026-05-05 15:59 | 39.66075 | 27.02653 | 37044 ft | 489 kts | 136° |
| 2026-05-05 15:59 | 39.61129 | 27.08715 | 37054 ft | 489 kts | 136° |
| 2026-05-05 16:00 | 39.56182 | 27.14767 | 37049 ft | 489 kts | 136° |
| 2026-05-05 16:00 | 39.51230 | 27.20813 | 37061 ft | 488 kts | 136° |
| 2026-05-05 16:01 | 39.46790 | 27.27330 | 37092 ft | 487 kts | 128° |
| 2026-05-05 16:01 | 39.42468 | 27.34081 | 37055 ft | 486 kts | 128° |
| 2026-05-05 16:02 | 39.38154 | 27.40824 | 37039 ft | 487 kts | 128° |
| 2026-05-05 16:02 | 39.33834 | 27.47564 | 37071 ft | 487 kts | 128° |
| 2026-05-05 16:03 | 39.29526 | 27.54271 | 37059 ft | 484 kts | 129° |
| 2026-05-05 16:03 | 39.25222 | 27.60957 | 37063 ft | 484 kts | 129° |
| 2026-05-05 16:04 | 39.20912 | 27.67638 | 37063 ft | 484 kts | 129° |
| 2026-05-05 16:04 | 39.16599 | 27.74311 | 37058 ft | 484 kts | 129° |
| 2026-05-05 16:05 | 39.12280 | 27.80977 | 37048 ft | 485 kts | 129° |
| 2026-05-05 16:05 | 39.07952 | 27.87646 | 37057 ft | 485 kts | 129° |
| 2026-05-05 16:06 | 39.03619 | 27.94306 | 37059 ft | 485 kts | 129° |
| 2026-05-05 16:06 | 38.99282 | 28.00961 | 37056 ft | 485 kts | 129° |
| 2026-05-05 16:07 | 38.94942 | 28.07606 | 37062 ft | 485 kts | 129° |
| 2026-05-05 16:07 | 38.90604 | 28.14234 | 37051 ft | 484 kts | 129° |
| 2026-05-05 16:08 | 38.86260 | 28.20858 | 37049 ft | 485 kts | 129° |
| 2026-05-05 16:08 | 38.81915 | 28.27468 | 37048 ft | 485 kts | 129° |
| 2026-05-05 16:09 | 38.77560 | 28.34082 | 37035 ft | 487 kts | 129° |
| 2026-05-05 16:09 | 38.73181 | 28.40716 | 37042 ft | 487 kts | 129° |
| 2026-05-05 16:10 | 38.68812 | 28.47322 | 37046 ft | 486 kts | 129° |
| 2026-05-05 16:10 | 38.64475 | 28.53867 | 36971 ft | 484 kts | 129° |
| 2026-05-05 16:10 | 38.62313 | 28.57126 | 36497 ft | 479 kts | 130° |
| 2026-05-05 16:11 | 38.59953 | 28.60116 | 35844 ft | 479 kts | 144° |
| 2026-05-05 16:11 | 38.50718 | 28.63757 | 34295 ft | 462 kts | 178° |
| 2026-05-05 16:12 | 38.47530 | 28.64099 | 33820 ft | 458 kts | 179° |
| 2026-05-05 16:12 | 38.41192 | 28.64681 | 32705 ft | 454 kts | 179° |
| 2026-05-05 16:13 | 38.31822 | 28.65460 | 31264 ft | 446 kts | 180° |
| 2026-05-05 16:13 | 38.28737 | 28.65714 | 30770 ft | 444 kts | 180° |
| 2026-05-05 16:13 | 38.25663 | 28.65967 | 30293 ft | 442 kts | 180° |
| 2026-05-05 16:14 | 38.19552 | 28.66470 | 29256 ft | 438 kts | 180° |
| 2026-05-05 16:14 | 38.13529 | 28.66963 | 28339 ft | 430 kts | 180° |
| 2026-05-05 16:15 | 38.07607 | 28.67449 | 27447 ft | 423 kts | 180° |
| 2026-05-05 16:15 | 38.01769 | 28.67925 | 26576 ft | 417 kts | 180° |
| 2026-05-05 16:16 | 37.96018 | 28.68395 | 25734 ft | 411 kts | 180° |
| 2026-05-05 16:16 | 37.90343 | 28.68857 | 24906 ft | 406 kts | 180° |
| 2026-05-05 16:17 | 37.84723 | 28.69314 | 24080 ft | 402 kts | 180° |
| 2026-05-05 16:17 | 37.81976 | 28.69537 | 23682 ft | 401 kts | 180° |
| 2026-05-05 16:18 | 37.76442 | 28.69987 | 22752 ft | 396 kts | 180° |
| 2026-05-05 16:18 | 37.73706 | 28.70209 | 22372 ft | 392 kts | 180° |
| 2026-05-05 16:18 | 37.68295 | 28.70601 | 21527 ft | 387 kts | 180° |
| 2026-05-05 16:19 | 37.65620 | 28.70790 | 21155 ft | 384 kts | 180° |
| 2026-05-05 16:19 | 37.62961 | 28.70979 | 20766 ft | 381 kts | 180° |
| 2026-05-05 16:19 | 37.57694 | 28.71354 | 20010 ft | 377 kts | 180° |
| 2026-05-05 16:20 | 37.52481 | 28.71725 | 19241 ft | 373 kts | 180° |
| 2026-05-05 16:20 | 37.47489 | 28.73204 | 18660 ft | 368 kts | 160° |
| 2026-05-05 16:21 | 37.42785 | 28.75576 | 18040 ft | 360 kts | 160° |
| 2026-05-05 16:22 | 37.35961 | 28.79030 | 17167 ft | 346 kts | 160° |
| 2026-05-05 16:22 | 37.31558 | 28.81258 | 16643 ft | 337 kts | 160° |
| 2026-05-05 16:23 | 37.27964 | 28.83074 | 16202 ft | 335 kts | 160° |
| 2026-05-05 16:23 | 37.25802 | 28.84166 | 15937 ft | 334 kts | 160° |
| 2026-05-05 16:23 | 37.21510 | 28.86331 | 15416 ft | 329 kts | 160° |
| 2026-05-05 16:24 | 37.19391 | 28.87399 | 15120 ft | 326 kts | 159° |
| 2026-05-05 16:24 | 37.17287 | 28.88459 | 14905 ft | 328 kts | 160° |
| 2026-05-05 16:24 | 37.13058 | 28.90588 | 14397 ft | 326 kts | 159° |
| 2026-05-05 16:25 | 37.10970 | 28.91639 | 14145 ft | 323 kts | 160° |
| 2026-05-05 16:25 | 37.06795 | 28.93736 | 13624 ft | 323 kts | 159° |
| 2026-05-05 16:25 | 37.04713 | 28.94782 | 13344 ft | 322 kts | 159° |
| 2026-05-05 16:26 | 37.00620 | 28.96835 | 12832 ft | 318 kts | 159° |
| 2026-05-05 16:26 | 36.96528 | 28.98886 | 12104 ft | 315 kts | 159° |
| 2026-05-05 16:27 | 36.94448 | 28.99634 | 11753 ft | 310 kts | 177° |
| 2026-05-05 16:27 | 36.92332 | 28.99331 | 11368 ft | 306 kts | 197° |
| 2026-05-05 16:27 | 36.90278 | 28.98633 | 11013 ft | 305 kts | 196° |
| 2026-05-05 16:27 | 36.88225 | 28.97942 | 10617 ft | 306 kts | 196° |
| 2026-05-05 16:28 | 36.86167 | 28.97244 | 10244 ft | 308 kts | 197° |
| 2026-05-05 16:28 | 36.84098 | 28.96535 | 9833 ft | 310 kts | 196° |
| 2026-05-05 16:28 | 36.82012 | 28.95820 | 9351 ft | 312 kts | 196° |
| 2026-05-05 16:28 | 36.79917 | 28.95099 | 8877 ft | 313 kts | 197° |
| 2026-05-05 16:29 | 36.77818 | 28.94378 | 8502 ft | 312 kts | 196° |
| 2026-05-05 16:29 | 36.75725 | 28.93659 | 8110 ft | 312 kts | 196° |
| 2026-05-05 16:29 | 36.73644 | 28.92946 | 7791 ft | 309 kts | 196° |
| 2026-05-05 16:29 | 36.71599 | 28.92245 | 7494 ft | 306 kts | 196° |
| 2026-05-05 16:30 | 36.69557 | 28.91545 | 7210 ft | 303 kts | 196° |
| 2026-05-05 16:30 | 36.67535 | 28.90853 | 6914 ft | 300 kts | 196° |
| 2026-05-05 16:30 | 36.65531 | 28.90167 | 6637 ft | 298 kts | 196° |
| 2026-05-05 16:30 | 36.63565 | 28.89494 | 6328 ft | 295 kts | 196° |
| 2026-05-05 16:31 | 36.61614 | 28.88827 | 5971 ft | 286 kts | 196° |
| 2026-05-05 16:31 | 36.59734 | 28.88185 | 5693 ft | 274 kts | 196° |
| 2026-05-05 16:31 | 36.57932 | 28.87569 | 5458 ft | 262 kts | 196° |
| 2026-05-05 16:31 | 36.56225 | 28.86987 | 5250 ft | 247 kts | 197° |
| 2026-05-05 16:32 | 36.54613 | 28.86438 | 4992 ft | 234 kts | 198° |
| 2026-05-05 16:32 | 36.53082 | 28.85916 | 4727 ft | 221 kts | 198° |
| 2026-05-05 16:32 | 36.51658 | 28.85430 | 4473 ft | 207 kts | 199° |
| 2026-05-05 16:32 | 36.50254 | 28.84951 | 4235 ft | 212 kts | 198° |
| 2026-05-05 16:33 | 36.48819 | 28.84463 | 3995 ft | 215 kts | 198° |
| 2026-05-05 16:33 | 36.47376 | 28.83971 | 3750 ft | 215 kts | 199° |
| 2026-05-05 16:33 | 36.46069 | 28.83183 | 3464 ft | 206 kts | 227° |
| 2026-05-05 16:33 | 36.45391 | 28.81703 | 3197 ft | 195 kts | 264° |
| 2026-05-05 16:34 | 36.45572 | 28.80112 | 2939 ft | 186 kts | 301° |
| 2026-05-05 16:34 | 36.46415 | 28.78928 | 2747 ft | 184 kts | 322° |
| 2026-05-05 16:34 | 36.47456 | 28.77991 | 2638 ft | 186 kts | 325° |
| 2026-05-05 16:34 | 36.48510 | 28.77076 | 2547 ft | 183 kts | 325° |
| 2026-05-05 16:35 | 36.49544 | 28.76178 | 2493 ft | 181 kts | 325° |
| 2026-05-05 16:35 | 36.50579 | 28.75276 | 2477 ft | 182 kts | 325° |
| 2026-05-05 16:35 | 36.51593 | 28.74391 | 2477 ft | 168 kts | 325° |
| 2026-05-05 16:35 | 36.52507 | 28.73645 | 2451 ft | 150 kts | 336° |
| 2026-05-05 16:36 | 36.53529 | 28.73503 | 2475 ft | 151 kts | 0° |
| 2026-05-05 16:36 | 36.54589 | 28.73679 | 2528 ft | 156 kts | 6° |
| 2026-05-05 16:36 | 36.55652 | 28.73954 | 2564 ft | 158 kts | 9° |
| 2026-05-05 16:36 | 36.56718 | 28.74285 | 2552 ft | 158 kts | 9° |
| 2026-05-05 16:37 | 36.57779 | 28.74637 | 2408 ft | 158 kts | 11° |
| 2026-05-05 16:37 | 36.58836 | 28.74993 | 2227 ft | 155 kts | 13° |
| 2026-05-05 16:37 | 36.59846 | 28.75337 | 2082 ft | 148 kts | 12° |
| 2026-05-05 16:37 | 36.60832 | 28.75673 | 1890 ft | 146 kts | 13° |
| 2026-05-05 16:38 | 36.61808 | 28.76006 | 1706 ft | 146 kts | 12° |
| 2026-05-05 16:38 | 36.62786 | 28.76340 | 1504 ft | 145 kts | 13° |
| 2026-05-05 16:38 | 36.63754 | 28.76669 | 1319 ft | 144 kts | 13° |
| 2026-05-05 16:38 | 36.64689 | 28.76991 | 1124 ft | 143 kts | 12° |
| 2026-05-05 16:39 | 36.65662 | 28.77320 | 943 ft | 146 kts | 12° |
| 2026-05-05 16:39 | 36.66644 | 28.77657 | 703 ft | 147 kts | 12° |
| 2026-05-05 16:39 | 36.67648 | 28.77998 | 564 ft | 152 kts | 11° |
| 2026-05-05 16:39 | 36.68673 | 28.78356 | 356 ft | 153 kts | 13° |
| 2026-05-05 16:40 | 36.69713 | 28.78716 | 128 ft | 156 kts | 12° |
| 2026-05-05 16:40 | 36.70730 | 28.79067 | 17 ft | 141 kts | 13° |
| 2026-05-05 16:40 | 36.71553 | 28.79332 | 15 ft | 101 kts | 15° |
| 2026-05-05 16:40 | 36.71976 | 28.79430 | 15 ft | 19 kts | 348° |
| 2026-05-05 16:41 | 36.72093 | 28.79397 | 14 ft | 8 kts | 345° |
| 2026-05-05 16:41 | 36.72128 | 28.79338 | 17 ft | 13 kts | 240° |
| 2026-05-05 16:41 | 36.72031 | 28.79282 | 15 ft | 16 kts | 195° |
| 2026-05-05 16:41 | 36.71934 | 28.79248 | 15 ft | 14 kts | 195° |
| 2026-05-05 16:42 | 36.71838 | 28.79212 | 15 ft | 14 kts | 190° |
| 2026-05-05 16:42 | 36.71738 | 28.79181 | 15 ft | 16 kts | 195° |
| 2026-05-05 16:42 | 36.71626 | 28.79144 | 15 ft | 18 kts | 195° |
| 2026-05-05 16:42 | 36.71513 | 28.79105 | 15 ft | 15 kts | 195° |
| 2026-05-05 16:43 | 36.71409 | 28.79070 | 15 ft | 17 kts | 195° |
| 2026-05-05 16:43 | 36.71335 | 28.79038 | 17 ft | 8 kts | 229° |
| 2026-05-05 16:43 | 36.71336 | 28.78962 | 17 ft | 10 kts | 282° |
| 2026-05-05 16:43 | 36.71353 | 28.78869 | 15 ft | 10 kts | 284° |
| 2026-05-05 16:44 | 36.71398 | 28.78843 | 15 ft | 9 kts | 15° |
| 2026-05-05 16:44 | 36.71468 | 28.78867 | 15 ft | 12 kts | 15° |
| 2026-05-05 16:44 | 36.71552 | 28.78896 | 15 ft | 14 kts | 15° |
| 2026-05-05 16:44 | 36.71654 | 28.78930 | 15 ft | 16 kts | 15° |
| 2026-05-05 16:45 | 36.71770 | 28.78971 | 15 ft | 18 kts | 15° |
| 2026-05-05 16:45 | 36.71901 | 28.79016 | 15 ft | 21 kts | 15° |
| 2026-05-05 16:45 | 36.72044 | 28.79065 | 15 ft | 19 kts | 15° |
| 2026-05-05 16:45 | 36.72130 | 28.79080 | 14 ft | 10 kts | 335° |
| 2026-05-05 16:46 | 36.72145 | 28.79039 | 14 ft | 4 kts | 284° |
| 2026-05-05 16:46 | 36.72148 | 28.79022 | 14 ft | 2 kts | 285° |
| 2026-05-05 16:46 | 36.72148 | 28.79021 | 14 ft | 0 kts | 285° |